KMKL/MKL METAR and TAF weather

Enter ICAO airport designator
Station Type Date Time Source
KMKL METAR 2020/07/14 07:11 UTC NOAA

KMKL 140711Z AUTO 00000KT 5SM BR CLR 21/20 A2997 RMK AO2 T02110200


Station Type Date Time Source
KMKL Decoded METAR 2020/07/14 07:11 UTC NOAA

JACKSON MCKELLAR-SIPES RGNL, TN, United States (KMKL) 35-36N 088-55W 128M
Jul 14, 2020 - 03:11 AM EDT / 2020.07.14 0711 UTC
Wind: Calm:0
Visibility: 5 mile(s):0
Sky conditions: clear
Weather: mist
Temperature: 70.0 F (21.1 C)
Dew Point: 68.0 F (20.0 C)
Relative Humidity: 93%
Pressure (altimeter): 29.97 in. Hg (1014 hPa)
ob: KMKL 140711Z AUTO 00000KT 5SM BR CLR 21/20 A2997 RMK AO2 T02110200
cycle: 7

Station Type Date Time Source
KMKL TAF 2020/07/14 06:22 UTC NOAA

TAF KMKL 140520Z 1406/1506 00000KT 6SM BR SCT200
TEMPO 1408/1412 2SM BR
FM141200 VRB03KT P6SM SCT250
FM141500 15004KT P6SM SCT050 SCT250
FM150100 VRB03KT P6SM SKC

Example: see airport list